sensor_id;sensor_type;location;lat;lon;timestamp;P1;durP1;ratioP1;P2;durP2;ratioP2
58978;SDS011;44763;50.464;30.612;2023-07-29T00:01:00;1.40;;;0.50;;
58978;SDS011;44763;50.464;30.612;2023-07-29T00:03:02;2.60;;;2.20;;
58978;SDS011;44763;50.464;30.612;2023-07-29T00:05:05;2.10;;;1.50;;
58978;SDS011;44763;50.464;30.612;2023-07-29T00:07:08;2.80;;;1.80;;
58978;SDS011;44763;50.464;30.612;2023-07-29T00:09:10;5.70;;;1.10;;
58978;SDS011;44763;50.464;30.612;2023-07-29T00:11:11;2.00;;;1.50;;
58978;SDS011;44763;50.464;30.612;2023-07-29T00:13:13;2.10;;;1.50;;
58978;SDS011;44763;50.464;30.612;2023-07-29T00:15:15;2.50;;;1.60;;
58978;SDS011;44763;50.464;30.612;2023-07-29T00:17:17;3.20;;;3.00;;
58978;SDS011;44763;50.464;30.612;2023-07-29T00:19:18;2.80;;;1.80;;
58978;SDS011;44763;50.464;30.612;2023-07-29T00:21:22;2.80;;;2.50;;
58978;SDS011;44763;50.464;30.612;2023-07-29T00:23:23;4.00;;;1.40;;
58978;SDS011;44763;50.464;30.612;2023-07-29T00:25:25;1.90;;;1.60;;
58978;SDS011;44763;50.464;30.612;2023-07-29T00:27:28;3.30;;;1.50;;
58978;SDS011;44763;50.464;30.612;2023-07-29T00:29:29;2.40;;;2.20;;
58978;SDS011;44763;50.464;30.612;2023-07-29T00:31:31;2.70;;;1.10;;
58978;SDS011;44763;50.464;30.612;2023-07-29T00:33:33;1.40;;;1.30;;
58978;SDS011;44763;50.464;30.612;2023-07-29T00:35:35;1.90;;;0.90;;
58978;SDS011;44763;50.464;30.612;2023-07-29T00:37:36;2.40;;;1.30;;
58978;SDS011;44763;50.464;30.612;2023-07-29T00:39:39;0.90;;;0.90;;
58978;SDS011;44763;50.464;30.612;2023-07-29T00:41:43;1.30;;;1.20;;
58978;SDS011;44763;50.464;30.612;2023-07-29T00:43:45;2.10;;;1.80;;
58978;SDS011;44763;50.464;30.612;2023-07-29T00:45:46;2.30;;;1.60;;
58978;SDS011;44763;50.464;30.612;2023-07-29T00:47:49;2.70;;;1.90;;
58978;SDS011;44763;50.464;30.612;2023-07-29T00:49:51;1.60;;;1.10;;
58978;SDS011;44763;50.464;30.612;2023-07-29T00:51:52;1.70;;;1.60;;
58978;SDS011;44763;50.464;30.612;2023-07-29T00:53:54;1.80;;;1.20;;
58978;SDS011;44763;50.464;30.612;2023-07-29T00:55:56;1.80;;;1.50;;
58978;SDS011;44763;50.464;30.612;2023-07-29T00:57:58;1.20;;;1.10;;
58978;SDS011;44763;50.464;30.612;2023-07-29T01:00:00;1.60;;;1.40;;
58978;SDS011;44763;50.464;30.612;2023-07-29T01:02:04;1.40;;;1.10;;
58978;SDS011;44763;50.464;30.612;2023-07-29T01:04:06;2.60;;;1.00;;
58978;SDS011;44763;50.464;30.612;2023-07-29T01:08:38;1.90;;;1.20;;
58978;SDS011;44763;50.464;30.612;2023-07-29T01:11:03;2.20;;;1.10;;
58978;SDS011;44763;50.464;30.612;2023-07-29T01:13:23;1.40;;;0.70;;
58978;SDS011;44763;50.464;30.612;2023-07-29T01:15:34;1.30;;;1.10;;
58978;SDS011;44763;50.464;30.612;2023-07-29T01:18:04;2.40;;;0.70;;
58978;SDS011;44763;50.464;30.612;2023-07-29T01:20:14;1.10;;;0.90;;
58978;SDS011;44763;50.464;30.612;2023-07-29T01:22:17;1.90;;;0.90;;
58978;SDS011;44763;50.464;30.612;2023-07-29T01:24:22;3.40;;;0.70;;
58978;SDS011;44763;50.464;30.612;2023-07-29T01:26:24;2.80;;;1.10;;
58978;SDS011;44763;50.464;30.612;2023-07-29T01:28:27;0.80;;;0.60;;
58978;SDS011;44763;50.464;30.612;2023-07-29T01:30:30;1.80;;;0.80;;
58978;SDS011;44763;50.464;30.612;2023-07-29T01:34:59;0.40;;;0.40;;
58978;SDS011;44763;50.464;30.612;2023-07-29T01:37:25;1.30;;;0.30;;
58978;SDS011;44763;50.464;30.612;2023-07-29T01:39:29;0.80;;;0.70;;
58978;SDS011;44763;50.464;30.612;2023-07-29T01:41:35;1.40;;;0.90;;
58978;SDS011;44763;50.464;30.612;2023-07-29T01:43:42;1.10;;;0.40;;
58978;SDS011;44763;50.464;30.612;2023-07-29T01:45:48;0.50;;;0.50;;
58978;SDS011;44763;50.464;30.612;2023-07-29T01:47:51;1.20;;;0.20;;
58978;SDS011;44763;50.464;30.612;2023-07-29T01:49:53;1.10;;;0.40;;
58978;SDS011;44763;50.464;30.612;2023-07-29T01:51:55;1.70;;;0.60;;
58978;SDS011;44763;50.464;30.612;2023-07-29T01:53:56;0.70;;;0.50;;
58978;SDS011;44763;50.464;30.612;2023-07-29T01:56:01;0.80;;;0.80;;
58978;SDS011;44763;50.464;30.612;2023-07-29T01:58:04;2.50;;;1.00;;
58978;SDS011;44763;50.464;30.612;2023-07-29T02:00:09;2.80;;;2.00;;
58978;SDS011;44763;50.464;30.612;2023-07-29T02:02:20;1.80;;;0.70;;
58978;SDS011;44763;50.464;30.612;2023-07-29T02:04:22;1.20;;;0.90;;
58978;SDS011;44763;50.464;30.612;2023-07-29T02:06:24;2.60;;;1.00;;
58978;SDS011;44763;50.464;30.612;2023-07-29T02:08:26;1.10;;;1.10;;
58978;SDS011;44763;50.464;30.612;2023-07-29T02:10:28;1.50;;;0.60;;
58978;SDS011;44763;50.464;30.612;2023-07-29T02:12:29;0.50;;;0.50;;
58978;SDS011;44763;50.464;30.612;2023-07-29T02:14:31;0.70;;;0.70;;
58978;SDS011;44763;50.464;30.612;2023-07-29T02:16:33;1.40;;;0.60;;
58978;SDS011;44763;50.464;30.612;2023-07-29T02:18:37;1.30;;;0.80;;
58978;SDS011;44763;50.464;30.612;2023-07-29T02:20:39;0.90;;;0.40;;
58978;SDS011;44763;50.464;30.612;2023-07-29T02:22:41;0.80;;;0.80;;
58978;SDS011;44763;50.464;30.612;2023-07-29T02:24:44;2.30;;;0.60;;
58978;SDS011;44763;50.464;30.612;2023-07-29T02:26:46;2.10;;;1.00;;
58978;SDS011;44763;50.464;30.612;2023-07-29T02:28:48;3.30;;;0.90;;
58978;SDS011;44763;50.464;30.612;2023-07-29T02:30:54;3.90;;;0.70;;
58978;SDS011;44763;50.464;30.612;2023-07-29T02:33:22;1.00;;;0.80;;
58978;SDS011;44763;50.464;30.612;2023-07-29T02:35:24;0.60;;;0.50;;
58978;SDS011;44763;50.464;30.612;2023-07-29T02:37:26;0.80;;;0.70;;
58978;SDS011;44763;50.464;30.612;2023-07-29T02:39:27;1.20;;;0.70;;
58978;SDS011;44763;50.464;30.612;2023-07-29T02:41:29;1.20;;;0.50;;
58978;SDS011;44763;50.464;30.612;2023-07-29T02:43:31;5.70;;;0.90;;
58978;SDS011;44763;50.464;30.612;2023-07-29T02:45:33;1.00;;;0.50;;
58978;SDS011;44763;50.464;30.612;2023-07-29T02:47:36;1.10;;;0.90;;
58978;SDS011;44763;50.464;30.612;2023-07-29T02:49:39;0.70;;;0.60;;
58978;SDS011;44763;50.464;30.612;2023-07-29T02:51:43;0.70;;;0.70;;
58978;SDS011;44763;50.464;30.612;2023-07-29T02:53:46;0.90;;;0.50;;
58978;SDS011;44763;50.464;30.612;2023-07-29T02:55:47;2.30;;;0.80;;
58978;SDS011;44763;50.464;30.612;2023-07-29T02:57:49;1.00;;;0.80;;
58978;SDS011;44763;50.464;30.612;2023-07-29T02:59:51;1.10;;;0.70;;
58978;SDS011;44763;50.464;30.612;2023-07-29T03:01:53;0.70;;;0.60;;
58978;SDS011;44763;50.464;30.612;2023-07-29T03:03:55;1.70;;;0.70;;
58978;SDS011;44763;50.464;30.612;2023-07-29T03:06:00;2.50;;;0.60;;
58978;SDS011;44763;50.464;30.612;2023-07-29T03:08:03;0.80;;;0.80;;
58978;SDS011;44763;50.464;30.612;2023-07-29T03:10:06;0.70;;;0.60;;
58978;SDS011;44763;50.464;30.612;2023-07-29T03:12:08;2.30;;;1.00;;
58978;SDS011;44763;50.464;30.612;2023-07-29T03:14:10;2.80;;;2.50;;
58978;SDS011;44763;50.464;30.612;2023-07-29T03:16:13;2.30;;;2.20;;
58978;SDS011;44763;50.464;30.612;2023-07-29T03:18:22;1.20;;;1.20;;
58978;SDS011;44763;50.464;30.612;2023-07-29T03:20:24;4.30;;;4.00;;
58978;SDS011;44763;50.464;30.612;2023-07-29T03:22:27;2.80;;;1.70;;
58978;SDS011;44763;50.464;30.612;2023-07-29T03:24:29;1.40;;;1.30;;
58978;SDS011;44763;50.464;30.612;2023-07-29T03:26:31;1.00;;;0.80;;
58978;SDS011;44763;50.464;30.612;2023-07-29T03:28:33;0.50;;;0.50;;
58978;SDS011;44763;50.464;30.612;2023-07-29T03:30:35;3.80;;;2.80;;
58978;SDS011;44763;50.464;30.612;2023-07-29T03:34:42;9.30;;;5.60;;
58978;SDS011;44763;50.464;30.612;2023-07-29T03:36:45;5.10;;;4.70;;
58978;SDS011;44763;50.464;30.612;2023-07-29T03:38:49;6.60;;;4.20;;
58978;SDS011;44763;50.464;30.612;2023-07-29T03:40:51;5.20;;;4.20;;
58978;SDS011;44763;50.464;30.612;2023-07-29T03:42:53;1.70;;;1.60;;
58978;SDS011;44763;50.464;30.612;2023-07-29T03:44:54;4.10;;;3.80;;
58978;SDS011;44763;50.464;30.612;2023-07-29T03:46:56;1.70;;;1.50;;
58978;SDS011;44763;50.464;30.612;2023-07-29T03:48:58;4.20;;;2.80;;
58978;SDS011;44763;50.464;30.612;2023-07-29T03:51:02;3.40;;;3.20;;
58978;SDS011;44763;50.464;30.612;2023-07-29T03:53:04;2.50;;;1.60;;
58978;SDS011;44763;50.464;30.612;2023-07-29T03:55:06;2.50;;;2.30;;
58978;SDS011;44763;50.464;30.612;2023-07-29T03:57:09;5.10;;;1.20;;
58978;SDS011;44763;50.464;30.612;2023-07-29T03:59:10;2.30;;;1.30;;
58978;SDS011;44763;50.464;30.612;2023-07-29T04:01:13;1.80;;;1.00;;
58978;SDS011;44763;50.464;30.612;2023-07-29T04:03:15;1.50;;;0.80;;
58978;SDS011;44763;50.464;30.612;2023-07-29T04:05:17;2.90;;;1.50;;
58978;SDS011;44763;50.464;30.612;2023-07-29T04:07:20;2.90;;;1.20;;
58978;SDS011;44763;50.464;30.612;2023-07-29T04:09:22;1.40;;;1.20;;
58978;SDS011;44763;50.464;30.612;2023-07-29T04:11:24;2.60;;;1.70;;
58978;SDS011;44763;50.464;30.612;2023-07-29T04:13:27;5.50;;;2.60;;
58978;SDS011;44763;50.464;30.612;2023-07-29T04:15:29;4.50;;;2.10;;
58978;SDS011;44763;50.464;30.612;2023-07-29T04:17:33;1.70;;;1.30;;
58978;SDS011;44763;50.464;30.612;2023-07-29T04:19:36;3.20;;;3.10;;
58978;SDS011;44763;50.464;30.612;2023-07-29T04:21:38;5.70;;;5.20;;
58978;SDS011;44763;50.464;30.612;2023-07-29T04:23:42;4.50;;;4.20;;
58978;SDS011;44763;50.464;30.612;2023-07-29T04:25:44;1.60;;;1.50;;
58978;SDS011;44763;50.464;30.612;2023-07-29T04:27:46;3.80;;;1.80;;
58978;SDS011;44763;50.464;30.612;2023-07-29T04:29:48;1.70;;;0.90;;
58978;SDS011;44763;50.464;30.612;2023-07-29T04:31:50;1.00;;;0.80;;
58978;SDS011;44763;50.464;30.612;2023-07-29T04:33:52;0.60;;;0.60;;
58978;SDS011;44763;50.464;30.612;2023-07-29T04:35:54;3.70;;;1.10;;
58978;SDS011;44763;50.464;30.612;2023-07-29T04:37:55;1.70;;;1.20;;
58978;SDS011;44763;50.464;30.612;2023-07-29T04:39:57;1.50;;;1.10;;
58978;SDS011;44763;50.464;30.612;2023-07-29T04:41:59;1.00;;;1.00;;
58978;SDS011;44763;50.464;30.612;2023-07-29T04:44:02;0.80;;;0.60;;
58978;SDS011;44763;50.464;30.612;2023-07-29T04:46:07;0.90;;;0.90;;
58978;SDS011;44763;50.464;30.612;2023-07-29T04:48:10;2.60;;;0.70;;
58978;SDS011;44763;50.464;30.612;2023-07-29T04:50:12;0.70;;;0.70;;
58978;SDS011;44763;50.464;30.612;2023-07-29T04:52:14;1.10;;;0.90;;
58978;SDS011;44763;50.464;30.612;2023-07-29T04:54:16;1.00;;;0.70;;
58978;SDS011;44763;50.464;30.612;2023-07-29T04:56:18;0.90;;;0.90;;
58978;SDS011;44763;50.464;30.612;2023-07-29T04:58:20;0.90;;;0.60;;
58978;SDS011;44763;50.464;30.612;2023-07-29T05:00:22;5.10;;;0.70;;
58978;SDS011;44763;50.464;30.612;2023-07-29T05:02:24;2.00;;;0.90;;
58978;SDS011;44763;50.464;30.612;2023-07-29T05:04:26;1.60;;;0.60;;
58978;SDS011;44763;50.464;30.612;2023-07-29T05:06:27;1.00;;;0.50;;
58978;SDS011;44763;50.464;30.612;2023-07-29T05:08:30;2.80;;;0.50;;
58978;SDS011;44763;50.464;30.612;2023-07-29T05:10:32;0.80;;;0.40;;
58978;SDS011;44763;50.464;30.612;2023-07-29T05:12:36;1.10;;;0.80;;
58978;SDS011;44763;50.464;30.612;2023-07-29T05:14:38;2.90;;;0.50;;
58978;SDS011;44763;50.464;30.612;2023-07-29T05:16:40;1.00;;;0.50;;
58978;SDS011;44763;50.464;30.612;2023-07-29T05:18:42;1.10;;;0.40;;
58978;SDS011;44763;50.464;30.612;2023-07-29T05:20:43;1.10;;;0.80;;
58978;SDS011;44763;50.464;30.612;2023-07-29T05:22:45;0.60;;;0.40;;
58978;SDS011;44763;50.464;30.612;2023-07-29T05:24:47;0.70;;;0.50;;
58978;SDS011;44763;50.464;30.612;2023-07-29T05:26:49;1.80;;;0.50;;
58978;SDS011;44763;50.464;30.612;2023-07-29T05:28:51;0.50;;;0.50;;
58978;SDS011;44763;50.464;30.612;2023-07-29T05:30:52;1.10;;;0.40;;
58978;SDS011;44763;50.464;30.612;2023-07-29T05:32:55;1.20;;;0.20;;
58978;SDS011;44763;50.464;30.612;2023-07-29T05:34:57;0.20;;;0.20;;
58978;SDS011;44763;50.464;30.612;2023-07-29T05:37:57;0.50;;;0.20;;
58978;SDS011;44763;50.464;30.612;2023-07-29T05:39:59;0.60;;;0.20;;
58978;SDS011;44763;50.464;30.612;2023-07-29T05:42:00;0.20;;;0.20;;
58978;SDS011;44763;50.464;30.612;2023-07-29T05:44:04;0.30;;;0.30;;
58978;SDS011;44763;50.464;30.612;2023-07-29T05:46:10;0.90;;;0.30;;
58978;SDS011;44763;50.464;30.612;2023-07-29T05:48:12;0.30;;;0.30;;
58978;SDS011;44763;50.464;30.612;2023-07-29T05:50:13;1.40;;;0.40;;
58978;SDS011;44763;50.464;30.612;2023-07-29T05:52:19;0.60;;;0.40;;
58978;SDS011;44763;50.464;30.612;2023-07-29T05:54:21;1.70;;;1.60;;
58978;SDS011;44763;50.464;30.612;2023-07-29T05:56:23;0.50;;;0.40;;
58978;SDS011;44763;50.464;30.612;2023-07-29T05:58:26;0.60;;;0.30;;
58978;SDS011;44763;50.464;30.612;2023-07-29T06:00:28;3.70;;;1.40;;
58978;SDS011;44763;50.464;30.612;2023-07-29T06:02:30;0.80;;;0.60;;
58978;SDS011;44763;50.464;30.612;2023-07-29T06:04:31;1.20;;;0.60;;
58978;SDS011;44763;50.464;30.612;2023-07-29T06:06:33;1.70;;;0.60;;
58978;SDS011;44763;50.464;30.612;2023-07-29T06:08:36;0.30;;;0.30;;
58978;SDS011;44763;50.464;30.612;2023-07-29T06:10:38;0.90;;;0.80;;
58978;SDS011;44763;50.464;30.612;2023-07-29T06:12:40;0.30;;;0.30;;
58978;SDS011;44763;50.464;30.612;2023-07-29T06:14:42;1.60;;;0.40;;
58978;SDS011;44763;50.464;30.612;2023-07-29T06:16:44;0.30;;;0.30;;
58978;SDS011;44763;50.464;30.612;2023-07-29T06:18:46;0.40;;;0.40;;
58978;SDS011;44763;50.464;30.612;2023-07-29T06:20:48;0.60;;;0.30;;
58978;SDS011;44763;50.464;30.612;2023-07-29T06:22:50;0.80;;;0.20;;
58978;SDS011;44763;50.464;30.612;2023-07-29T06:24:52;0.40;;;0.30;;
58978;SDS011;44763;50.464;30.612;2023-07-29T06:26:55;0.50;;;0.50;;
58978;SDS011;44763;50.464;30.612;2023-07-29T06:28:56;0.20;;;0.10;;
58978;SDS011;44763;50.464;30.612;2023-07-29T06:30:58;0.30;;;0.30;;
58978;SDS011;44763;50.464;30.612;2023-07-29T06:33:00;1.30;;;0.20;;
58978;SDS011;44763;50.464;30.612;2023-07-29T06:35:02;0.30;;;0.20;;
58978;SDS011;44763;50.464;30.612;2023-07-29T06:37:04;0.20;;;0.10;;
58978;SDS011;44763;50.464;30.612;2023-07-29T06:39:08;1.10;;;0.30;;
58978;SDS011;44763;50.464;30.612;2023-07-29T06:41:09;0.40;;;0.20;;
58978;SDS011;44763;50.464;30.612;2023-07-29T06:43:15;0.30;;;0.20;;
58978;SDS011;44763;50.464;30.612;2023-07-29T06:45:17;1.20;;;0.30;;
58978;SDS011;44763;50.464;30.612;2023-07-29T06:47:19;0.40;;;0.30;;
58978;SDS011;44763;50.464;30.612;2023-07-29T06:49:21;0.30;;;0.20;;
58978;SDS011;44763;50.464;30.612;2023-07-29T06:51:22;0.20;;;0.20;;
58978;SDS011;44763;50.464;30.612;2023-07-29T06:53:24;0.40;;;0.30;;
58978;SDS011;44763;50.464;30.612;2023-07-29T06:55:26;1.90;;;0.50;;
58978;SDS011;44763;50.464;30.612;2023-07-29T06:57:28;1.60;;;0.30;;
58978;SDS011;44763;50.464;30.612;2023-07-29T06:59:30;0.40;;;0.30;;
58978;SDS011;44763;50.464;30.612;2023-07-29T07:01:32;1.20;;;0.50;;
58978;SDS011;44763;50.464;30.612;2023-07-29T07:03:34;2.10;;;0.80;;
58978;SDS011;44763;50.464;30.612;2023-07-29T07:05:36;0.50;;;0.30;;
58978;SDS011;44763;50.464;30.612;2023-07-29T07:07:38;0.50;;;0.40;;
58978;SDS011;44763;50.464;30.612;2023-07-29T07:09:40;0.50;;;0.40;;
58978;SDS011;44763;50.464;30.612;2023-07-29T07:11:42;0.50;;;0.40;;
58978;SDS011;44763;50.464;30.612;2023-07-29T07:13:43;1.10;;;0.60;;
58978;SDS011;44763;50.464;30.612;2023-07-29T07:15:45;0.50;;;0.50;;
58978;SDS011;44763;50.464;30.612;2023-07-29T07:17:47;1.70;;;0.50;;
58978;SDS011;44763;50.464;30.612;2023-07-29T07:19:48;0.50;;;0.40;;
58978;SDS011;44763;50.464;30.612;2023-07-29T07:21:51;2.30;;;0.30;;
58978;SDS011;44763;50.464;30.612;2023-07-29T07:23:53;0.40;;;0.40;;
58978;SDS011;44763;50.464;30.612;2023-07-29T07:25:55;1.00;;;0.60;;
58978;SDS011;44763;50.464;30.612;2023-07-29T07:27:56;0.60;;;0.40;;
58978;SDS011;44763;50.464;30.612;2023-07-29T07:29:58;2.20;;;0.20;;
58978;SDS011;44763;50.464;30.612;2023-07-29T07:32:00;2.20;;;0.50;;
58978;SDS011;44763;50.464;30.612;2023-07-29T07:34:02;3.60;;;0.40;;
58978;SDS011;44763;50.464;30.612;2023-07-29T07:36:04;0.50;;;0.20;;
58978;SDS011;44763;50.464;30.612;2023-07-29T07:38:06;0.30;;;0.20;;
58978;SDS011;44763;50.464;30.612;2023-07-29T07:40:09;0.30;;;0.20;;
58978;SDS011;44763;50.464;30.612;2023-07-29T07:42:13;0.30;;;0.20;;
58978;SDS011;44763;50.464;30.612;2023-07-29T07:44:14;1.00;;;0.40;;
58978;SDS011;44763;50.464;30.612;2023-07-29T07:46:19;1.40;;;0.30;;
58978;SDS011;44763;50.464;30.612;2023-07-29T07:48:21;1.00;;;0.20;;
58978;SDS011;44763;50.464;30.612;2023-07-29T07:50:23;0.40;;;0.30;;
58978;SDS011;44763;50.464;30.612;2023-07-29T07:52:25;2.10;;;0.40;;
58978;SDS011;44763;50.464;30.612;2023-07-29T07:54:28;0.40;;;0.40;;
58978;SDS011;44763;50.464;30.612;2023-07-29T07:56:30;0.60;;;0.40;;
58978;SDS011;44763;50.464;30.612;2023-07-29T07:58:32;0.70;;;0.60;;
58978;SDS011;44763;50.464;30.612;2023-07-29T08:00:34;0.70;;;0.50;;
58978;SDS011;44763;50.464;30.612;2023-07-29T08:02:36;0.70;;;0.70;;
58978;SDS011;44763;50.464;30.612;2023-07-29T08:04:39;0.90;;;0.60;;
58978;SDS011;44763;50.464;30.612;2023-07-29T08:06:41;0.50;;;0.50;;
58978;SDS011;44763;50.464;30.612;2023-07-29T08:08:42;0.50;;;0.40;;
58978;SDS011;44763;50.464;30.612;2023-07-29T08:10:44;2.00;;;0.50;;
58978;SDS011;44763;50.464;30.612;2023-07-29T08:12:46;0.60;;;0.60;;
58978;SDS011;44763;50.464;30.612;2023-07-29T08:14:48;0.50;;;0.40;;
58978;SDS011;44763;50.464;30.612;2023-07-29T08:16:50;0.70;;;0.70;;
58978;SDS011;44763;50.464;30.612;2023-07-29T08:18:52;2.30;;;0.50;;
58978;SDS011;44763;50.464;30.612;2023-07-29T08:20:55;0.70;;;0.70;;
58978;SDS011;44763;50.464;30.612;2023-07-29T08:22:59;2.30;;;1.20;;
58978;SDS011;44763;50.464;30.612;2023-07-29T08:25:01;1.30;;;0.70;;
58978;SDS011;44763;50.464;30.612;2023-07-29T08:27:03;1.60;;;1.40;;
58978;SDS011;44763;50.464;30.612;2023-07-29T08:29:04;2.20;;;0.70;;
58978;SDS011;44763;50.464;30.612;2023-07-29T08:31:07;0.80;;;0.80;;
58978;SDS011;44763;50.464;30.612;2023-07-29T08:33:09;0.80;;;0.80;;
58978;SDS011;44763;50.464;30.612;2023-07-29T08:35:11;2.00;;;0.70;;
58978;SDS011;44763;50.464;30.612;2023-07-29T08:37:14;1.30;;;1.20;;
58978;SDS011;44763;50.464;30.612;2023-07-29T08:39:16;2.40;;;0.60;;
58978;SDS011;44763;50.464;30.612;2023-07-29T08:41:29;1.10;;;0.80;;
58978;SDS011;44763;50.464;30.612;2023-07-29T08:43:38;1.50;;;0.80;;
58978;SDS011;44763;50.464;30.612;2023-07-29T08:45:43;0.60;;;0.60;;
58978;SDS011;44763;50.464;30.612;2023-07-29T08:47:46;0.90;;;0.50;;
58978;SDS011;44763;50.464;30.612;2023-07-29T08:49:51;1.00;;;0.50;;
58978;SDS011;44763;50.464;30.612;2023-07-29T08:51:55;0.70;;;0.50;;
58978;SDS011;44763;50.464;30.612;2023-07-29T08:53:59;1.80;;;0.80;;
58978;SDS011;44763;50.464;30.612;2023-07-29T08:56:02;2.30;;;0.60;;
58978;SDS011;44763;50.464;30.612;2023-07-29T08:58:06;1.90;;;0.90;;
58978;SDS011;44763;50.464;30.612;2023-07-29T09:00:08;1.00;;;0.50;;
58978;SDS011;44763;50.464;30.612;2023-07-29T09:02:11;2.20;;;0.50;;
58978;SDS011;44763;50.464;30.612;2023-07-29T09:04:13;1.90;;;0.60;;
58978;SDS011;44763;50.464;30.612;2023-07-29T09:06:15;1.40;;;0.40;;
58978;SDS011;44763;50.464;30.612;2023-07-29T09:08:17;0.40;;;0.40;;
58978;SDS011;44763;50.464;30.612;2023-07-29T09:10:21;1.90;;;0.50;;
58978;SDS011;44763;50.464;30.612;2023-07-29T09:12:24;0.90;;;0.80;;
58978;SDS011;44763;50.464;30.612;2023-07-29T09:14:27;1.60;;;1.50;;
58978;SDS011;44763;50.464;30.612;2023-07-29T09:16:29;0.50;;;0.50;;
58978;SDS011;44763;50.464;30.612;2023-07-29T09:18:32;0.70;;;0.60;;
58978;SDS011;44763;50.464;30.612;2023-07-29T09:20:33;1.20;;;0.80;;
58978;SDS011;44763;50.464;30.612;2023-07-29T09:22:35;0.70;;;0.70;;
58978;SDS011;44763;50.464;30.612;2023-07-29T09:24:37;2.10;;;1.30;;
58978;SDS011;44763;50.464;30.612;2023-07-29T09:26:39;0.80;;;0.80;;
58978;SDS011;44763;50.464;30.612;2023-07-29T09:28:53;0.50;;;0.50;;
58978;SDS011;44763;50.464;30.612;2023-07-29T09:30:58;3.50;;;0.60;;
58978;SDS011;44763;50.464;30.612;2023-07-29T09:33:01;1.80;;;0.80;;
58978;SDS011;44763;50.464;30.612;2023-07-29T09:35:03;1.40;;;1.00;;
58978;SDS011;44763;50.464;30.612;2023-07-29T09:37:16;1.00;;;0.50;;
58978;SDS011;44763;50.464;30.612;2023-07-29T09:39:19;1.10;;;1.10;;
58978;SDS011;44763;50.464;30.612;2023-07-29T09:41:28;1.00;;;0.60;;
58978;SDS011;44763;50.464;30.612;2023-07-29T09:43:34;0.90;;;0.70;;
58978;SDS011;44763;50.464;30.612;2023-07-29T09:45:37;0.70;;;0.70;;
58978;SDS011;44763;50.464;30.612;2023-07-29T09:47:41;1.60;;;0.60;;
58978;SDS011;44763;50.464;30.612;2023-07-29T09:49:48;1.20;;;0.90;;
58978;SDS011;44763;50.464;30.612;2023-07-29T09:51:50;1.60;;;0.50;;
58978;SDS011;44763;50.464;30.612;2023-07-29T09:53:54;1.20;;;0.50;;
58978;SDS011;44763;50.464;30.612;2023-07-29T09:55:57;2.10;;;0.40;;
58978;SDS011;44763;50.464;30.612;2023-07-29T09:58:00;0.60;;;0.40;;
58978;SDS011;44763;50.464;30.612;2023-07-29T10:00:04;2.10;;;1.00;;
58978;SDS011;44763;50.464;30.612;2023-07-29T10:02:15;3.60;;;0.90;;
58978;SDS011;44763;50.464;30.612;2023-07-29T10:04:19;0.40;;;0.40;;
58978;SDS011;44763;50.464;30.612;2023-07-29T10:06:22;1.70;;;0.50;;
58978;SDS011;44763;50.464;30.612;2023-07-29T10:08:26;1.60;;;0.60;;
58978;SDS011;44763;50.464;30.612;2023-07-29T10:10:31;1.20;;;0.90;;
58978;SDS011;44763;50.464;30.612;2023-07-29T10:12:32;0.30;;;0.30;;
58978;SDS011;44763;50.464;30.612;2023-07-29T10:14:36;1.20;;;0.50;;
58978;SDS011;44763;50.464;30.612;2023-07-29T10:16:40;1.30;;;0.50;;
58978;SDS011;44763;50.464;30.612;2023-07-29T10:18:43;0.40;;;0.40;;
58978;SDS011;44763;50.464;30.612;2023-07-29T10:20:45;0.60;;;0.20;;
58978;SDS011;44763;50.464;30.612;2023-07-29T10:24:54;0.20;;;0.20;;
58978;SDS011;44763;50.464;30.612;2023-07-29T10:27:00;1.00;;;0.20;;
58978;SDS011;44763;50.464;30.612;2023-07-29T10:29:04;0.60;;;0.20;;
58978;SDS011;44763;50.464;30.612;2023-07-29T10:31:10;1.10;;;0.30;;
58978;SDS011;44763;50.464;30.612;2023-07-29T10:33:12;0.20;;;0.20;;
58978;SDS011;44763;50.464;30.612;2023-07-29T10:35:15;1.10;;;0.30;;
58978;SDS011;44763;50.464;30.612;2023-07-29T10:37:17;1.00;;;0.40;;
58978;SDS011;44763;50.464;30.612;2023-07-29T10:39:20;0.40;;;0.30;;
58978;SDS011;44763;50.464;30.612;2023-07-29T10:41:23;0.40;;;0.20;;
58978;SDS011;44763;50.464;30.612;2023-07-29T10:43:58;0.20;;;0.10;;
58978;SDS011;44763;50.464;30.612;2023-07-29T10:46:19;0.20;;;0.20;;
58978;SDS011;44763;50.464;30.612;2023-07-29T10:50:39;0.20;;;0.20;;
58978;SDS011;44763;50.464;30.612;2023-07-29T10:52:41;2.00;;;0.40;;
58978;SDS011;44763;50.464;30.612;2023-07-29T10:54:47;1.60;;;0.20;;
58978;SDS011;44763;50.464;30.612;2023-07-29T10:56:49;1.00;;;0.30;;
58978;SDS011;44763;50.464;30.612;2023-07-29T10:58:51;1.30;;;0.20;;
58978;SDS011;44763;50.464;30.612;2023-07-29T11:00:53;0.30;;;0.30;;
58978;SDS011;44763;50.464;30.612;2023-07-29T11:02:59;0.50;;;0.40;;
58978;SDS011;44763;50.464;30.612;2023-07-29T11:05:06;0.40;;;0.30;;
58978;SDS011;44763;50.464;30.612;2023-07-29T11:11:56;0.30;;;0.20;;
58978;SDS011;44763;50.464;30.612;2023-07-29T11:13:58;1.90;;;0.30;;
58978;SDS011;44763;50.464;30.612;2023-07-29T11:16:01;2.30;;;0.20;;
58978;SDS011;44763;50.464;30.612;2023-07-29T11:18:04;1.30;;;0.30;;
58978;SDS011;44763;50.464;30.612;2023-07-29T11:20:07;2.10;;;0.20;;
58978;SDS011;44763;50.464;30.612;2023-07-29T11:22:11;0.50;;;0.20;;
58978;SDS011;44763;50.464;30.612;2023-07-29T11:24:16;1.50;;;0.20;;
58978;SDS011;44763;50.464;30.612;2023-07-29T11:26:20;0.40;;;0.20;;
58978;SDS011;44763;50.464;30.612;2023-07-29T11:28:21;2.90;;;0.40;;
58978;SDS011;44763;50.464;30.612;2023-07-29T11:30:23;6.40;;;0.40;;
58978;SDS011;44763;50.464;30.612;2023-07-29T11:32:29;0.20;;;0.20;;
58978;SDS011;44763;50.464;30.612;2023-07-29T11:34:31;0.50;;;0.30;;
58978;SDS011;44763;50.464;30.612;2023-07-29T11:36:34;1.70;;;0.20;;
58978;SDS011;44763;50.464;30.612;2023-07-29T11:38:36;0.50;;;0.30;;
58978;SDS011;44763;50.464;30.612;2023-07-29T11:40:41;0.50;;;0.50;;
58978;SDS011;44763;50.464;30.612;2023-07-29T11:42:43;0.70;;;0.30;;
58978;SDS011;44763;50.464;30.612;2023-07-29T11:44:46;0.70;;;0.30;;
58978;SDS011;44763;50.464;30.612;2023-07-29T11:46:47;0.30;;;0.30;;
58978;SDS011;44763;50.464;30.612;2023-07-29T11:48:50;0.80;;;0.30;;
58978;SDS011;44763;50.464;30.612;2023-07-29T11:50:52;0.20;;;0.20;;
58978;SDS011;44763;50.464;30.612;2023-07-29T11:52:55;0.60;;;0.20;;
58978;SDS011;44763;50.464;30.612;2023-07-29T11:54:56;0.20;;;0.20;;
58978;SDS011;44763;50.464;30.612;2023-07-29T11:56:58;0.50;;;0.20;;
58978;SDS011;44763;50.464;30.612;2023-07-29T11:59:01;0.60;;;0.50;;
58978;SDS011;44763;50.464;30.612;2023-07-29T12:01:04;0.80;;;0.40;;
58978;SDS011;44763;50.464;30.612;2023-07-29T12:03:06;4.60;;;0.40;;
58978;SDS011;44763;50.464;30.612;2023-07-29T12:05:10;0.40;;;0.20;;
58978;SDS011;44763;50.464;30.612;2023-07-29T12:07:17;2.80;;;0.20;;
58978;SDS011;44763;50.464;30.612;2023-07-29T12:09:21;0.20;;;0.10;;
58978;SDS011;44763;50.464;30.612;2023-07-29T12:11:24;0.60;;;0.20;;
58978;SDS011;44763;50.464;30.612;2023-07-29T12:13:25;0.30;;;0.10;;
58978;SDS011;44763;50.464;30.612;2023-07-29T12:15:28;0.50;;;0.20;;
58978;SDS011;44763;50.464;30.612;2023-07-29T12:17:31;0.60;;;0.10;;
58978;SDS011;44763;50.464;30.612;2023-07-29T12:19:37;0.40;;;0.10;;
58978;SDS011;44763;50.464;30.612;2023-07-29T12:21:43;0.60;;;0.10;;
58978;SDS011;44763;50.464;30.612;2023-07-29T12:23:45;1.70;;;0.20;;
58978;SDS011;44763;50.464;30.612;2023-07-29T12:25:47;1.30;;;0.30;;
58978;SDS011;44763;50.464;30.612;2023-07-29T12:27:49;1.10;;;0.20;;